createdAt,value
2022-11-25T00:01:25.589Z,33.83
2022-11-25T00:03:54.883Z,27.92
2022-11-25T00:06:30.576Z,29.08
2022-11-25T00:09:03.270Z,39.83
2022-11-25T00:11:30.469Z,31.23
2022-11-25T00:13:58.181Z,29.83
2022-11-25T00:16:29.007Z,26.83
2022-11-25T00:18:57.809Z,22.40
2022-11-25T00:21:27.600Z,23.27
2022-11-25T00:24:03.238Z,24.20
2022-11-25T00:26:34.547Z,25.02
2022-11-25T00:29:03.549Z,21.92
2022-11-25T00:31:33.547Z,29.40
2022-11-25T00:34:00.353Z,29.23
2022-11-25T00:36:31.292Z,34.90
2022-11-25T00:39:04.645Z,35.92
2022-11-25T00:41:50.209Z,31.00
2022-11-25T00:44:38.647Z,31.45
2022-11-25T00:47:20.560Z,32.10
2022-11-25T00:49:49.557Z,27.38
2022-11-25T00:52:27.113Z,26.05
2022-11-25T00:54:54.404Z,26.40
2022-11-25T00:57:23.198Z,23.30
2022-11-25T00:59:50.037Z,24.70
2022-11-25T01:02:18.602Z,20.73
2022-11-25T01:04:46.045Z,27.80
2022-11-25T01:07:13.343Z,29.25
2022-11-25T01:09:40.584Z,31.00
2022-11-25T01:12:07.516Z,23.90
2022-11-25T01:14:34.997Z,22.77
2022-11-25T01:17:02.089Z,20.70
2022-11-25T01:19:29.207Z,19.20
2022-11-25T01:21:56.372Z,22.02
2022-11-25T01:24:24.246Z,26.48
2022-11-25T01:26:51.189Z,23.67
2022-11-25T01:29:19.061Z,24.73
2022-11-25T01:31:46.999Z,22.08
2022-11-25T01:34:19.676Z,20.65
2022-11-25T01:36:47.281Z,20.23
2022-11-25T01:39:24.345Z,20.17
2022-11-25T01:41:53.717Z,18.35
2022-11-25T01:44:23.185Z,17.27
2022-11-25T01:47:01.745Z,19.02
2022-11-25T01:49:49.440Z,16.40
2022-11-25T01:52:30.560Z,14.73
2022-11-25T01:55:06.747Z,15.50
2022-11-25T01:57:51.794Z,17.45
2022-11-25T02:00:19.126Z,15.27
2022-11-25T02:02:48.172Z,19.42
2022-11-25T02:05:20.251Z,16.55
2022-11-25T02:07:49.671Z,21.40
2022-11-25T02:10:24.129Z,19.15
2022-11-25T02:12:51.959Z,20.33
2022-11-25T02:15:19.045Z,22.60
2022-11-25T02:17:46.437Z,16.33
2022-11-25T02:20:19.307Z,17.45
2022-11-25T02:22:54.787Z,27.92
2022-11-25T02:25:34.246Z,21.25
2022-11-25T02:28:29.752Z,26.38
2022-11-25T02:30:57.389Z,19.92
2022-11-25T02:33:24.681Z,23.98
2022-11-25T02:36:01.846Z,20.23
2022-11-25T02:38:50.772Z,25.98
2022-11-25T02:41:31.635Z,26.17
2022-11-25T02:43:59.208Z,20.23
2022-11-25T02:46:28.012Z,20.90
2022-11-25T02:49:12.721Z,24.92
2022-11-25T02:51:43.773Z,20.25
2022-11-25T02:54:15.729Z,21.48
2022-11-25T02:56:42.600Z,27.70
2022-11-25T02:59:10.338Z,30.33
2022-11-25T03:01:38.516Z,28.52
2022-11-25T03:04:06.111Z,27.70
2022-11-25T03:06:33.757Z,30.42
2022-11-25T03:09:00.615Z,20.85
2022-11-25T03:11:47.345Z,23.90
2022-11-25T03:14:14.569Z,22.17
2022-11-25T03:16:41.469Z,30.73
2022-11-25T03:19:08.636Z,25.98
2022-11-25T03:21:35.499Z,27.77
2022-11-25T03:24:02.601Z,26.30
2022-11-25T03:26:29.815Z,26.75
2022-11-25T03:28:56.546Z,35.47
2022-11-25T03:31:23.416Z,21.45
2022-11-25T03:33:50.228Z,26.38
2022-11-25T03:36:16.938Z,20.38
2022-11-25T03:38:43.796Z,19.60
2022-11-25T03:41:11.044Z,18.48
2022-11-25T03:43:37.993Z,25.75
2022-11-25T03:46:05.069Z,22.10
2022-11-25T03:48:31.903Z,19.80
2022-11-25T03:50:59.090Z,20.63
2022-11-25T03:53:26.188Z,19.25
2022-11-25T03:55:52.948Z,24.08
2022-11-25T03:58:19.732Z,20.42
2022-11-25T04:00:46.917Z,19.90
2022-11-25T04:03:13.840Z,16.33
2022-11-25T04:05:41.240Z,17.48
2022-11-25T04:08:08.206Z,15.98
2022-11-25T04:10:35.454Z,19.60
2022-11-25T04:13:02.265Z,26.75
2022-11-25T04:15:29.041Z,20.20
2022-11-25T04:17:56.213Z,19.50
2022-11-25T04:20:23.341Z,15.48
2022-11-25T04:22:50.032Z,18.02
2022-11-25T04:25:17.311Z,14.95
2022-11-25T04:27:44.786Z,15.93
2022-11-25T04:30:12.124Z,18.08
2022-11-25T04:32:39.037Z,20.38
2022-11-25T04:35:06.231Z,30.77
2022-11-25T04:37:32.993Z,19.25
2022-11-25T04:39:59.710Z,17.35
2022-11-25T04:42:32.228Z,17.58
2022-11-25T04:45:23.352Z,15.75
2022-11-25T04:47:50.970Z,15.75
2022-11-25T04:50:21.472Z,18.88
2022-11-25T04:52:48.401Z,24.95
2022-11-25T04:55:15.379Z,14.98
2022-11-25T04:57:42.179Z,17.40
2022-11-25T05:00:09.834Z,14.77
2022-11-25T05:02:37.090Z,17.10
2022-11-25T05:05:05.236Z,15.85
2022-11-25T05:07:32.056Z,14.68
2022-11-25T05:09:58.933Z,14.45
2022-11-25T05:12:29.495Z,15.90
2022-11-25T05:14:57.364Z,19.45
2022-11-25T05:17:27.845Z,16.13
2022-11-25T05:19:55.046Z,18.70
2022-11-25T05:22:25.274Z,16.38
2022-11-25T05:24:52.581Z,15.98
2022-11-25T05:27:20.445Z,15.65
2022-11-25T05:29:50.232Z,15.38
2022-11-25T05:32:21.164Z,11.77
2022-11-25T05:34:47.984Z,17.63
2022-11-25T05:37:18.714Z,18.15
2022-11-25T05:39:48.016Z,22.92
2022-11-25T05:42:14.729Z,17.20
2022-11-25T05:44:41.465Z,12.15
2022-11-25T05:47:08.571Z,11.60
2022-11-25T05:49:35.359Z,13.90
2022-11-25T05:52:02.186Z,19.05
2022-11-25T05:54:29.103Z,13.55
2022-11-25T05:56:56.241Z,18.77
2022-11-25T05:59:23.067Z,11.88
2022-11-25T06:01:52.504Z,14.80
2022-11-25T06:04:19.247Z,13.65
2022-11-25T06:06:45.998Z,16.85
2022-11-25T06:09:12.815Z,23.17
2022-11-25T06:11:39.578Z,30.98
2022-11-25T06:14:06.852Z,22.50
2022-11-25T06:16:34.039Z,13.80
2022-11-25T06:19:05.628Z,15.93
2022-11-25T06:21:32.752Z,11.15
2022-11-25T06:23:59.970Z,12.45
2022-11-25T06:26:26.754Z,13.65
2022-11-25T06:28:55.805Z,10.75
2022-11-25T06:31:24.553Z,17.25
2022-11-25T06:33:53.039Z,13.50
2022-11-25T06:36:21.009Z,10.75
2022-11-25T06:38:53.201Z,23.98
2022-11-25T06:41:22.130Z,17.00
2022-11-25T06:43:49.000Z,21.38
2022-11-25T06:46:23.074Z,19.70
2022-11-25T06:48:51.730Z,16.13
2022-11-25T06:51:18.519Z,12.45
2022-11-25T06:53:45.419Z,12.05
2022-11-25T06:56:15.780Z,15.98
2022-11-25T06:58:43.766Z,13.90
2022-11-25T07:01:15.585Z,17.13
2022-11-25T07:03:43.623Z,52.35
2022-11-25T07:06:13.027Z,22.35
2022-11-25T07:08:40.454Z,72.75
2022-11-25T07:11:11.581Z,54.60
2022-11-25T07:13:38.410Z,48.10
2022-11-25T07:16:06.632Z,79.57
2022-11-25T07:18:36.756Z,44.00
2022-11-25T07:21:15.040Z,38.85
2022-11-25T07:23:43.306Z,45.30
2022-11-25T07:26:21.884Z,39.13
2022-11-25T07:28:50.499Z,36.90
2022-11-25T07:31:24.874Z,39.08
2022-11-25T07:34:00.847Z,44.70
2022-11-25T07:36:29.960Z,53.25
2022-11-25T07:38:59.088Z,45.05
2022-11-25T07:41:26.892Z,32.88
2022-11-25T07:43:56.780Z,38.60
2022-11-25T07:46:38.856Z,30.08
2022-11-25T07:49:09.971Z,35.50
2022-11-25T07:51:39.080Z,42.22
2022-11-25T07:54:07.936Z,43.10
2022-11-25T07:56:36.855Z,44.05
2022-11-25T07:59:04.479Z,50.58
2022-11-25T08:01:31.468Z,44.63
2022-11-25T08:03:58.696Z,44.47
2022-11-25T08:06:28.235Z,41.95
2022-11-25T08:08:57.272Z,38.08
2022-11-25T08:11:27.738Z,52.90
2022-11-25T08:13:55.248Z,43.72
2022-11-25T08:16:26.309Z,57.38
2022-11-25T08:18:55.112Z,38.83
2022-11-25T08:21:22.296Z,40.85
2022-11-25T08:23:49.598Z,48.97
2022-11-25T08:26:30.241Z,49.58
2022-11-25T08:29:01.096Z,40.80
2022-11-25T08:31:37.532Z,30.67
2022-11-25T08:34:06.860Z,29.95
2022-11-25T08:36:35.547Z,36.80
2022-11-25T08:39:22.505Z,35.65
2022-11-25T08:41:53.057Z,15.98
2022-11-25T08:44:19.845Z,25.45
2022-11-25T08:46:46.787Z,23.35
2022-11-25T08:49:16.802Z,14.98
2022-11-25T08:51:43.659Z,15.15
2022-11-25T08:54:10.390Z,15.98
2022-11-25T08:56:37.261Z,13.23
2022-11-25T08:59:04.685Z,13.18
2022-11-25T09:01:32.332Z,11.50
2022-11-25T09:03:59.730Z,11.48
2022-11-25T09:06:28.196Z,16.55
2022-11-25T09:08:57.472Z,12.02
2022-11-25T09:11:25.651Z,9.80
2022-11-25T09:13:53.237Z,11.90
2022-11-25T09:16:21.074Z,12.88
2022-11-25T09:18:54.095Z,12.10
2022-11-25T09:21:24.862Z,10.57
2022-11-25T09:23:54.008Z,13.55
2022-11-25T09:26:27.622Z,15.85
2022-11-25T09:28:55.380Z,16.10
2022-11-25T09:31:23.288Z,14.98
2022-11-25T09:33:50.905Z,16.92
2022-11-25T09:36:19.371Z,14.73
2022-11-25T09:38:46.540Z,11.98
2022-11-25T09:41:46.429Z,14.45
2022-11-25T09:44:57.494Z,17.90
2022-11-25T09:47:48.224Z,10.35
2022-11-25T09:50:34.453Z,11.52
2022-11-25T09:53:43.473Z,9.02
2022-11-25T09:56:34.772Z,12.07
2022-11-25T09:59:29.504Z,8.52
2022-11-25T10:02:09.873Z,13.93
2022-11-25T10:04:53.663Z,13.23
2022-11-25T10:07:33.275Z,11.18
2022-11-25T10:10:03.436Z,20.30
2022-11-25T10:12:42.380Z,20.95
2022-11-25T10:15:33.307Z,21.15
2022-11-25T10:18:39.590Z,14.90
2022-11-25T10:21:06.559Z,12.73
2022-11-25T10:23:36.973Z,13.25
2022-11-25T10:26:14.212Z,17.30
2022-11-25T10:28:49.899Z,12.90
2022-11-25T10:31:20.613Z,8.57
2022-11-25T10:33:53.755Z,10.55
2022-11-25T10:36:33.577Z,7.22
2022-11-25T10:39:24.610Z,11.48
2022-11-25T10:42:03.469Z,9.63
2022-11-25T10:44:41.368Z,12.55
2022-11-25T10:47:36.774Z,15.15
2022-11-25T10:50:25.058Z,10.38
2022-11-25T10:53:10.092Z,16.83
2022-11-25T10:55:37.368Z,13.65
2022-11-25T10:58:26.782Z,19.60
2022-11-25T11:01:25.347Z,10.85
2022-11-25T11:04:05.138Z,15.75
2022-11-25T11:06:41.594Z,15.60
2022-11-25T11:09:38.887Z,8.80
2022-11-25T11:12:26.910Z,16.33
2022-11-25T11:15:13.968Z,11.48
2022-11-25T11:17:40.798Z,11.77
2022-11-25T11:20:07.493Z,12.48
2022-11-25T11:22:50.371Z,15.60
2022-11-25T11:25:19.860Z,13.30
2022-11-25T11:27:47.343Z,9.45
2022-11-25T11:30:20.935Z,10.85
2022-11-25T11:33:04.311Z,9.98
2022-11-25T11:35:49.867Z,11.52
2022-11-25T11:38:22.369Z,18.00
2022-11-25T11:41:00.543Z,11.52
2022-11-25T11:43:39.357Z,15.77
2022-11-25T11:46:14.847Z,11.23
2022-11-25T11:48:53.132Z,11.05
2022-11-25T11:51:32.499Z,8.65
2022-11-25T11:54:08.393Z,6.35
2022-11-25T11:56:40.693Z,12.50
2022-11-25T11:59:21.307Z,10.25
2022-11-25T12:01:57.705Z,12.13
2022-11-25T12:04:41.883Z,14.60
2022-11-25T12:07:38.116Z,11.30
2022-11-25T12:10:14.099Z,10.80
2022-11-25T12:12:50.850Z,14.32
2022-11-25T12:15:35.676Z,10.45
2022-11-25T12:18:11.460Z,7.95
2022-11-25T12:20:45.131Z,10.30
2022-11-25T12:23:46.258Z,17.83
2022-11-25T12:26:19.349Z,10.63
2022-11-25T12:29:30.438Z,12.48
2022-11-25T12:32:23.147Z,10.40
2022-11-25T12:35:14.399Z,13.07
2022-11-25T12:38:04.182Z,10.98
2022-11-25T12:40:47.080Z,10.35
2022-11-25T12:43:22.494Z,10.18
2022-11-25T12:45:55.357Z,10.10
2022-11-25T12:48:22.164Z,11.05
2022-11-25T12:51:02.929Z,15.35
2022-11-25T12:53:39.140Z,9.63
2022-11-25T12:56:11.730Z,15.48
2022-11-25T12:59:01.879Z,10.45
2022-11-25T13:02:02.752Z,17.52
2022-11-25T13:04:44.333Z,18.48
2022-11-25T13:07:50.097Z,11.45
2022-11-25T13:10:35.161Z,13.02
2022-11-25T13:13:22.509Z,9.40
2022-11-25T13:15:54.252Z,13.48
2022-11-25T13:18:26.113Z,9.35
2022-11-25T13:21:05.062Z,7.30
2022-11-25T13:23:49.584Z,14.25
2022-11-25T13:26:28.845Z,18.02
2022-11-25T13:28:56.645Z,9.80
2022-11-25T13:31:31.560Z,9.20
2022-11-25T13:34:07.497Z,12.88
2022-11-25T13:36:45.335Z,7.88
2022-11-25T13:39:18.565Z,9.75
2022-11-25T13:41:57.728Z,12.95
2022-11-25T13:44:32.200Z,14.52
2022-11-25T13:47:19.943Z,9.95
2022-11-25T13:49:50.114Z,15.10
2022-11-25T13:52:30.575Z,11.63
2022-11-25T13:54:57.895Z,11.75
2022-11-25T13:57:34.697Z,14.18
2022-11-25T14:00:15.501Z,22.83
2022-11-25T14:02:47.222Z,21.15
2022-11-25T14:05:42.244Z,23.88
2022-11-25T14:08:29.906Z,14.52
2022-11-25T14:11:14.158Z,15.68
2022-11-25T14:14:04.542Z,13.35
2022-11-25T14:16:59.930Z,17.85
2022-11-25T14:20:00.207Z,28.38
2022-11-25T14:22:27.641Z,20.67
2022-11-25T14:25:11.600Z,22.33
2022-11-25T14:27:39.261Z,23.27
2022-11-25T14:30:09.060Z,20.35
2022-11-25T14:32:48.569Z,22.00
2022-11-25T14:35:22.195Z,24.70
2022-11-25T14:38:01.008Z,22.77
2022-11-25T14:40:57.156Z,25.85
2022-11-25T14:43:25.809Z,25.55
2022-11-25T14:46:17.028Z,28.67
2022-11-25T14:48:44.483Z,38.67
2022-11-25T14:51:17.985Z,39.67
2022-11-25T14:53:48.665Z,41.03
2022-11-25T14:56:23.108Z,44.35
2022-11-25T14:58:53.536Z,40.95
2022-11-25T15:01:32.499Z,46.60
2022-11-25T15:04:06.530Z,46.03
2022-11-25T15:06:38.956Z,49.90
2022-11-25T15:09:23.146Z,54.25
2022-11-25T15:12:01.896Z,45.80
2022-11-25T15:14:36.012Z,46.63
2022-11-25T15:17:19.162Z,45.85
2022-11-25T15:19:46.164Z,43.03
2022-11-25T15:22:25.001Z,40.28
2022-11-25T15:24:55.777Z,39.78
2022-11-25T15:27:26.995Z,42.35
2022-11-25T15:29:55.998Z,40.53
2022-11-25T15:32:25.313Z,44.63
2022-11-25T15:34:53.613Z,61.55
2022-11-25T15:37:21.014Z,58.40
2022-11-25T15:39:47.930Z,47.60
2022-11-25T15:42:19.596Z,46.95
2022-11-25T15:44:56.638Z,43.67
2022-11-25T15:47:26.725Z,49.15
2022-11-25T15:50:04.613Z,57.42
2022-11-25T15:52:37.812Z,61.33
2022-11-25T15:55:20.216Z,64.80
2022-11-25T15:57:51.549Z,63.92
2022-11-25T16:00:20.880Z,66.43
2022-11-25T16:02:51.910Z,71.78
2022-11-25T16:05:25.104Z,70.38
2022-11-25T16:07:52.127Z,59.70
2022-11-25T16:10:31.644Z,49.53
2022-11-25T16:13:23.134Z,56.97
2022-11-25T16:15:55.140Z,61.47
2022-11-25T16:18:39.795Z,48.60
2022-11-25T16:21:12.727Z,64.28
2022-11-25T16:23:44.640Z,47.17
2022-11-25T16:26:11.693Z,66.13
2022-11-25T16:28:41.398Z,66.75
2022-11-25T16:31:16.368Z,69.68
2022-11-25T16:33:43.646Z,65.13
2022-11-25T16:36:10.431Z,80.57
2022-11-25T16:38:37.122Z,80.30
2022-11-25T16:41:11.580Z,95.40
2022-11-25T16:43:40.118Z,113.43
2022-11-25T16:46:07.034Z,90.10
2022-11-25T16:48:34.109Z,98.50
2022-11-25T16:51:01.043Z,86.18
2022-11-25T16:53:28.000Z,89.53
2022-11-25T16:55:55.633Z,90.65
2022-11-25T16:58:26.741Z,80.15
2022-11-25T17:00:56.428Z,111.65
2022-11-25T17:03:26.419Z,108.93
2022-11-25T17:05:53.389Z,74.07
2022-11-25T17:08:20.172Z,77.18
2022-11-25T17:10:47.270Z,84.03
2022-11-25T17:13:23.208Z,84.18
2022-11-25T17:15:50.523Z,95.78
2022-11-25T17:18:18.507Z,97.15
2022-11-25T17:20:46.208Z,121.38
2022-11-25T17:23:17.714Z,114.47
2022-11-25T17:25:48.411Z,93.63
2022-11-25T17:28:20.996Z,102.70
2022-11-25T17:30:48.380Z,106.25
2022-11-25T17:33:19.134Z,114.40
2022-11-25T17:35:46.568Z,111.57
2022-11-25T17:38:17.656Z,125.95
2022-11-25T17:40:45.052Z,130.95
2022-11-25T17:43:17.772Z,115.32
2022-11-25T17:45:46.786Z,100.72
2022-11-25T17:48:17.980Z,120.07
2022-11-25T17:50:45.461Z,97.88
2022-11-25T17:53:12.268Z,107.03
2022-11-25T17:55:40.851Z,93.13
2022-11-25T17:58:11.935Z,105.90
2022-11-25T18:00:41.393Z,108.70
2022-11-25T18:03:16.478Z,157.60
2022-11-25T18:05:43.806Z,125.07
2022-11-25T18:08:10.634Z,104.78
2022-11-25T18:10:39.053Z,65.97
2022-11-25T18:13:06.447Z,91.65
2022-11-25T18:15:34.771Z,109.53
2022-11-25T18:18:05.099Z,73.45
2022-11-25T18:20:33.218Z,122.82
2022-11-25T18:23:00.757Z,93.70
2022-11-25T18:25:31.251Z,116.57
2022-11-25T18:28:00.093Z,116.97
2022-11-25T18:30:29.604Z,120.75
2022-11-25T18:32:57.311Z,126.25
2022-11-25T18:35:31.079Z,103.47
2022-11-25T18:38:01.134Z,122.55
2022-11-25T18:40:29.656Z,134.38
2022-11-25T18:43:00.391Z,124.75
2022-11-25T18:45:40.439Z,158.07
2022-11-25T18:48:17.918Z,128.60
2022-11-25T18:50:46.032Z,91.22
2022-11-25T18:53:13.280Z,78.55
2022-11-25T18:55:40.622Z,103.93
2022-11-25T18:58:19.412Z,113.75
2022-11-25T19:00:48.576Z,88.13
2022-11-25T19:03:22.043Z,100.38
2022-11-25T19:05:49.227Z,103.65
2022-11-25T19:08:16.487Z,97.32
2022-11-25T19:10:45.531Z,105.65
2022-11-25T19:13:23.517Z,101.00
2022-11-25T19:15:50.450Z,96.20
2022-11-25T19:18:26.789Z,122.88
2022-11-25T19:20:53.753Z,116.43
2022-11-25T19:23:25.641Z,130.10
2022-11-25T19:25:54.908Z,126.30
2022-11-25T19:28:22.336Z,130.75
2022-11-25T19:31:00.190Z,118.97
2022-11-25T19:33:34.096Z,114.63
2022-11-25T19:36:01.343Z,135.38
2022-11-25T19:38:29.607Z,150.82
2022-11-25T19:40:57.709Z,98.35
2022-11-25T19:43:28.471Z,82.00
2022-11-25T19:45:56.927Z,98.47
2022-11-25T19:48:27.154Z,129.57
2022-11-25T19:50:59.665Z,104.95
2022-11-25T19:53:33.103Z,108.60
2022-11-25T19:56:04.138Z,89.72
2022-11-25T19:58:31.420Z,96.55
2022-11-25T20:01:03.349Z,80.53
2022-11-25T20:03:32.015Z,80.47
2022-11-25T20:05:59.401Z,75.40
2022-11-25T20:08:28.966Z,78.13
2022-11-25T20:10:56.598Z,78.43
2022-11-25T20:13:26.037Z,95.90
2022-11-25T20:15:55.258Z,193.10
2022-11-25T20:18:25.666Z,226.95
2022-11-25T20:21:01.214Z,243.48
2022-11-25T20:23:43.770Z,212.32
2022-11-25T20:26:18.728Z,190.15
2022-11-25T20:28:46.069Z,192.73
2022-11-25T20:31:14.114Z,180.35
2022-11-25T20:33:41.825Z,137.45
2022-11-25T20:36:15.335Z,133.68
2022-11-25T20:38:52.744Z,97.78
2022-11-25T20:41:24.392Z,103.78
2022-11-25T20:43:54.954Z,114.55
2022-11-25T20:46:24.427Z,113.95
2022-11-25T20:48:55.311Z,120.18
2022-11-25T20:51:23.070Z,153.73
2022-11-25T20:54:01.377Z,102.63
2022-11-25T20:56:29.313Z,116.78
2022-11-25T20:58:57.003Z,111.30
2022-11-25T21:01:23.879Z,88.13
2022-11-25T21:03:51.205Z,84.00
2022-11-25T21:06:19.487Z,85.03
2022-11-25T21:08:51.766Z,99.40
2022-11-25T21:11:20.812Z,102.97
2022-11-25T21:13:48.568Z,61.50
2022-11-25T21:16:15.855Z,84.88
2022-11-25T21:18:43.312Z,78.20
2022-11-25T21:21:30.050Z,101.45
2022-11-25T21:23:57.789Z,90.20
2022-11-25T21:26:26.625Z,67.18
2022-11-25T21:28:54.656Z,49.22
2022-11-25T21:31:25.988Z,73.05
2022-11-25T21:34:00.360Z,49.40
2022-11-25T21:36:31.332Z,38.05
2022-11-25T21:39:07.883Z,29.80
2022-11-25T21:41:35.920Z,29.63
2022-11-25T21:44:06.293Z,33.45
2022-11-25T21:46:33.703Z,28.77
2022-11-25T21:49:01.105Z,29.13
2022-11-25T21:51:30.050Z,58.25
2022-11-25T21:54:00.508Z,44.40
2022-11-25T21:56:34.044Z,46.70
2022-11-25T21:59:05.314Z,65.20
2022-11-25T22:01:33.932Z,67.15
2022-11-25T22:04:01.339Z,72.05
2022-11-25T22:06:30.814Z,51.22
2022-11-25T22:08:57.863Z,33.03
2022-11-25T22:11:31.723Z,31.90
2022-11-25T22:14:02.361Z,28.67
2022-11-25T22:16:33.035Z,27.38
2022-11-25T22:19:00.009Z,29.20
2022-11-25T22:21:26.873Z,24.65
2022-11-25T22:23:54.220Z,31.92
2022-11-25T22:26:29.407Z,43.80
2022-11-25T22:28:56.883Z,46.85
2022-11-25T22:31:24.909Z,48.33
2022-11-25T22:33:52.291Z,50.03
2022-11-25T22:36:29.705Z,70.53
2022-11-25T22:39:09.723Z,47.88
2022-11-25T22:41:36.767Z,70.00
2022-11-25T22:44:04.172Z,54.38
2022-11-25T22:46:33.427Z,81.72
2022-11-25T22:49:00.268Z,58.83
2022-11-25T22:51:27.969Z,60.85
2022-11-25T22:53:55.153Z,83.32
2022-11-25T22:56:22.439Z,90.05
2022-11-25T22:58:49.236Z,87.07
2022-11-25T23:01:17.180Z,103.30
2022-11-25T23:03:44.656Z,122.82
2022-11-25T23:06:13.332Z,110.97
2022-11-25T23:08:40.373Z,92.15
2022-11-25T23:11:14.588Z,96.10
2022-11-25T23:13:41.459Z,64.60
2022-11-25T23:16:11.009Z,77.22
2022-11-25T23:18:46.739Z,72.18
2022-11-25T23:21:18.516Z,71.40
2022-11-25T23:23:45.763Z,68.32
2022-11-25T23:26:13.646Z,57.50
2022-11-25T23:28:40.485Z,67.57
2022-11-25T23:31:10.113Z,72.50
2022-11-25T23:33:45.801Z,90.30
2022-11-25T23:36:23.462Z,70.50
2022-11-25T23:38:52.108Z,79.55
2022-11-25T23:41:25.075Z,93.63
2022-11-25T23:43:52.512Z,100.10
2022-11-25T23:46:22.927Z,111.75
2022-11-25T23:48:59.630Z,94.18
2022-11-25T23:51:28.281Z,100.43
2022-11-25T23:53:56.499Z,73.25
2022-11-25T23:56:24.686Z,86.88
2022-11-25T23:58:51.471Z,78.55
